NEODyS-2

Near Earth Objects - Dynamic Site
NEODyS ∴ Observatories ∴ Site 691 ∴ Obs & residuals
Contact »
691  ▹ 
OBSERVATIONS AND RESIDUALS

691-Steward Observatory, Kitt Peak-Spacewatch

Detections | Residuals | Detections & Residuals

[1-200] [201-400] [401-600] [601-800] [801-1000] [1001-1200] [1201-1400] [1401-1600] [1601-1800] [1801-2000] [2001-2200] [2201-2400] [2401-2600] [2601-2800] [2801-3000] [3001-3200] [3201-3400] [3401-3600] [3601-3800] [3801-4000] [4001-4200] [4201-4400] [4401-4600] [4601-4800] [4801-5000] [5001-5200] [5201-5400] [5401-5600] [5601-5800] [5801-6000] [6001-6200] [6201-6400] [6401-6600] [6601-6800] [6801-7000] [7001-7200] [7201-7400] [7401-7600] [7601-7800] [7801-8000] [8001-8200] [8201-8400] [8401-8600] [8601-8800] [8801-9000] [9001-9200] [9201-9400] [9401-9600] [9601-9800] [9801-10000] [10001-10200] [10201-10400] [10401-10600] [10601-10800] [10801-11000] [11001-11200] [11201-11400] [11401-11600] [11601-11800] [11801-12000] [12001-12200] [12201-12400] [12401-12600] [12601-12800] [12801-13000] [13001-13200] [13201-13400] [13401-13600] [13601-13800] [13801-14000] [14001-14200] [14201-14400] [14401-14600] [14601-14800] [14801-15000] [15001-15200] [15201-15400] [15401-15600] [15601-15800] [15801-16000] [16001-16200] [16201-16400] [16401-16600] [16601-16800] [16801-17000] [17001-17200] [17201-17400] [17401-17600] [17601-17800] [17801-18000] [18001-18200] [18201-18400] [18401-18600] [18601-18800] [18801-19000] [19001-19200] [19201-19400] [19401-19600] [19601-19800] [19801-20000] [20001-20200] [20201-20400] [20401-20600] [20601-20800] [20801-21000] [21001-21200] [21201-21400] [21401-21600] [21601-21800] [21801-22000] [22001-22200] [22201-22400] [22401-22600] [22601-22800] [22801-23000] [23001-23200] [23201-23400] [23401-23600] [23601-23800] [23801-24000] [24001-24200] [24201-24400] [24401-24600] [24601-24800] [24801-25000] [25001-25200] [25201-25400] [25401-25600] [25601-25800] [25801-26000] [26001-26200] [26201-26400] [26401-26600] [26601-26800] [26801-27000] [27001-27200] [27201-27400] [27401-27600] [27601-27800] [27801-28000] [28001-28200] [28201-28400] [28401-28600] [28601-28800] [28801-29000] [29001-29200] [29201-29400] [29401-29600] [29601-29800] [29801-30000] [30001-30200] [30201-30400] [30401-30600] [30601-30800] [30801-31000] [31001-31200] [31201-31400] [31401-31600] [31601-31800] [31801-32000] [32001-32200] [32201-32400] [32401-32600] [32601-32800] [32801-33000] [33001-33200] [33201-33400] [33401-33600] [33601-33800] [33801-34000] [34001-34200] [34201-34400] [34401-34600] [34601-34800] [34801-35000] [35001-35200] [35201-35400] [35401-35600] [35601-35800] [35801-36000] [36001-36200] [36201-36400] [36401-36600] [36601-36800] [36801-37000] [37001-37200] [37201-37400] [37401-37600] [37601-37800] [37801-38000] [38001-38200] [38201-38400] [38401-38600] [38601-38800] [38801-39000] [39001-39200] [39201-39400] [39401-39600] [39601-39800] [39801-40000] [40001-40200] [40201-40400] [40401-40600] [40601-40800] [40801-41000] [41001-41200] [41201-41400] [41401-41600] [41601-41800] [41801-42000] [42001-42200] [42201-42400] [42401-42600] [42601-42800] [42801-43000] [43001-43200] [43201-43400] [43401-43600] [43601-43800] [43801-44000] [44001-44200] [44201-44400] [44401-44600] [44601-44800] [44801-45000] [45001-45200] [45201-45400] [45401-45600] [45601-45800] [45801-46000] [46001-46200] [46201-46400] [46401-46600] [46601-46800] [46801-47000] [47001-47200] [47201-47400] [47401-47600] [47601-47800] [47801-48000] [48001-48200] [48201-48400] [48401-48600] [48601-48800] [48801-49000] [49001-49200] [49201-49400] [49401-49600] [49601-49800] [49801-50000] [50001-50200] [50201-50388]

Designation T Tech N Date Right Ascension Declination Apparent Magnitude Star Catalog Site code χ Used A Used M
yr-mo-day precision hr:min:sec precision rms F bias residual deg min sec precision rms F bias residual mag/col rms residual
2021GR12 O C K 2021-05-04.41253 1.000E-05 14:32:20.240 1.500E-01 0.500 F 0.123 0.006 -02° 44' 41.50" 1.000E-01 0.500 F 0.151 0.317 22.4 R 0.70 0.51 o 691 0.64 Yes Yes
2021GB24 O C K 2021-05-04.43308 1.000E-05 14:55:41.330 1.500E-01 0.500 F 0.172 -0.335 -03° 14' 24.40" 1.000E-01 0.500 F 0.133 -0.197 20.9 R 0.70 -0.38 o 691 0.79 Yes Yes
2021CD3 O C K 2021-05-05.15388 1.000E-05 09:12:11.870 1.500E-01 0.500 F 0.101 0.110 +24° 16' 42.00" 1.000E-01 0.500 F 0.413 -0.218 22.3 R 0.70 0.95 o 691 0.51 Yes Yes
2021CD3 O C K 2021-05-05.16688 1.000E-05 09:12:13.620 1.500E-01 0.500 F 0.101 0.441 +24° 16' 39.80" 1.000E-01 0.500 F 0.413 -0.641 22.8 R 0.70 1.45 o 691 1.61 Yes Yes
2021CD3 O C K 2021-05-05.17988 1.000E-05 09:12:15.290 1.500E-01 0.500 F 0.101 -0.364 +24° 16' 38.60" 1.000E-01 0.500 F 0.413 -0.038 22.1 R 0.70 0.75 o 691 0.75 Yes Yes
2021GM4 O C K 2021-05-05.20464 1.000E-05 09:20:22.960 1.500E-01 0.500 F 0.006 0.000 -16° 53' 42.00" 1.000E-01 0.500 F -0.092 0.265 21.1 R 0.70 0.75 o 691 0.53 Yes Yes
2021GP3 O C K 2021-05-05.20859 1.000E-05 10:27:56.300 1.500E-01 0.500 F 0.154 0.031 +02° 04' 16.80" 1.000E-01 0.500 F 0.174 0.051 21.8 R 0.70 0.56 o 691 0.12 Yes Yes
2021GM4 O C K 2021-05-05.22337 1.000E-05 09:20:21.790 1.500E-01 0.500 F 0.006 0.052 -16° 53' 47.80" 1.000E-01 0.500 F -0.092 0.442 o 691 0.90 Yes No
2021GP3 O C K 2021-05-05.22732 1.000E-05 10:27:50.370 1.500E-01 0.500 F 0.154 -0.275 +02° 03' 54.70" 1.000E-01 0.500 F 0.174 -0.035 21.7 R 0.70 0.46 o 691 0.57 Yes Yes
2021GP3 O C K 2021-05-05.24174 1.000E-05 10:27:45.880 1.500E-01 0.500 F 0.154 0.180 +02° 03' 38.00" 1.000E-01 0.500 F 0.174 0.224 21.9 R 0.70 0.66 o 691 0.60 Yes Yes
2021GQ7 O C K 2021-05-05.28243 1.000E-05 13:04:02.050 1.500E-01 0.500 F 0.232 0.426 +29° 04' 05.60" 1.000E-01 0.500 F 0.109 -0.233 22.0 R 0.70 0.20 o 691 0.99 Yes Yes
2021GQ7 O C K 2021-05-05.30805 1.000E-05 13:04:03.380 1.500E-01 0.500 F 0.232 0.380 +29° 05' 23.50" 1.000E-01 0.500 F 0.109 -0.226 22.1 R 0.70 0.30 o 691 0.90 Yes Yes
2021GQ7 O C K 2021-05-05.33365 1.000E-05 13:04:04.740 1.500E-01 0.500 F 0.232 -0.028 +29° 06' 40.40" 1.000E-01 0.500 F 0.109 -0.420 21.2 R 0.70 -0.60 o 691 0.86 Yes Yes
2021JC1 O C K 2021-05-06.13795 1.000E-05 13:15:16.000 1.500E-01 0.500 F 0.408 -0.285 -15° 25' 07.80" 1.000E-01 0.500 F 0.073 -0.098 o 691 0.60 Yes No
2021JC1 O C K 2021-05-06.14434 1.000E-05 13:15:11.510 1.500E-01 0.500 F 0.408 -0.056 -15° 24' 31.90" 1.000E-01 0.500 F 0.073 -0.170 20.9 R 0.70 0.84 o 691 0.37 Yes Yes
2021JC1 O C K 2021-05-06.15073 1.000E-05 13:15:06.990 1.500E-01 0.500 F 0.408 -0.090 -15° 23' 56.00" 1.000E-01 0.500 F 0.073 -0.334 20.2 R 0.70 0.14 o 691 0.71 Yes Yes
2021HS O C K 2021-05-06.16003 1.000E-05 11:55:38.100 1.500E-01 0.500 F 0.434 0.591 -23° 15' 50.40" 1.000E-01 0.500 F 0.201 0.641 20.3 R 0.70 0.00 o 691 1.75 Yes Yes
2021HS O C K 2021-05-06.16399 1.000E-05 11:55:37.590 1.500E-01 0.500 F 0.434 -0.554 -23° 15' 45.90" 1.000E-01 0.500 F 0.201 0.677 19.9 R 0.70 -0.40 o 691 1.76 Yes Yes
2021HS O C K 2021-05-06.16794 1.000E-05 11:55:37.200 1.500E-01 0.500 F 0.434 -0.059 -23° 15' 41.80" 1.000E-01 0.500 F 0.201 0.321 20.5 R 0.70 0.20 o 691 0.66 Yes Yes
1997GL3 O C H 2021-05-06.21305 1.000E-05 12:26:34.300 1.500E-01 0.500 F 0.210 -0.023 +04° 50' 46.00" 1.000E-01 0.500 F 0.277 0.156 18.7 R 0.70 -0.12 o 691 0.32 Yes Yes
1997GL3 O C H 2021-05-06.21477 1.000E-05 12:26:34.460 1.500E-01 0.500 F 0.210 -0.132 +04° 50' 44.60" 1.000E-01 0.500 F 0.277 0.142 18.8 R 0.70 -0.02 o 691 0.39 Yes Yes
1997GL3 O C H 2021-05-06.21648 1.000E-05 12:26:34.630 1.500E-01 0.500 F 0.210 -0.076 +04° 50' 43.40" 1.000E-01 0.500 F 0.277 0.320 18.9 R 0.70 0.08 o 691 0.66 Yes Yes
2021JC2 O C K 2021-05-06.22779 1.000E-05 14:43:27.580 1.500E-01 0.500 F 0.196 -0.765 +09° 19' 56.20" 1.000E-01 0.500 F 0.216 -0.205 o 691 1.65 Yes No
2021JC2 O C K 2021-05-06.23205 1.000E-05 14:43:30.240 1.500E-01 0.500 F 0.196 -0.293 +09° 20' 04.20" 1.000E-01 0.500 F 0.216 0.028 20.3 R 0.70 0.38 o 691 0.61 Yes Yes
2021JC2 O C K 2021-05-06.23630 1.000E-05 14:43:32.820 1.500E-01 0.500 F 0.196 -0.880 +09° 20' 11.70" 1.000E-01 0.500 F 0.216 -0.207 20.4 R 0.70 0.48 o 691 1.88 Yes Yes
2021JE1 O C K 2021-05-06.26268 1.000E-05 15:14:12.920 1.500E-01 0.500 F 0.265 0.363 -09° 36' 52.00" 1.000E-01 0.500 F 0.251 0.108 21.5 R 0.70 0.31 o 691 0.76 Yes Yes
2021JE1 O C K 2021-05-06.27472 1.000E-05 15:14:09.680 1.500E-01 0.500 F 0.265 -0.165 -09° 36' 27.60" 1.000E-01 0.500 F 0.251 0.295 21.3 R 0.70 0.11 o 691 0.68 Yes Yes
2021JE1 O C K 2021-05-06.28676 1.000E-05 15:14:06.490 1.500E-01 0.500 F 0.265 0.311 -09° 36' 03.40" 1.000E-01 0.500 F 0.251 0.141 o 691 0.69 Yes No
2021HD1 O C K 2021-05-06.32027 1.000E-05 16:11:13.830 1.500E-01 0.500 F 0.329 0.410 -10° 18' 47.50" 1.000E-01 0.500 F 0.271 0.048 o 691 0.91 Yes No
2021HD1 O C K 2021-05-06.33214 1.000E-05 16:11:15.870 1.500E-01 0.500 F 0.329 0.288 -10° 19' 31.20" 1.000E-01 0.500 F 0.271 -0.447 o 691 1.17 Yes No
2021HD1 O C K 2021-05-06.34403 1.000E-05 16:11:17.870 1.500E-01 0.500 F 0.329 -0.325 -10° 20' 14.00" 1.000E-01 0.500 F 0.271 -0.117 o 691 0.74 Yes No
2021EM3 O C K 2021-05-06.35961 1.000E-05 16:41:57.630 1.500E-01 0.500 F 0.345 -0.869 +08° 00' 40.20" 1.000E-01 0.500 F 0.038 -0.691 o 691 2.25 Yes No
2021EM3 O C K 2021-05-06.37684 1.000E-05 16:41:56.370 1.500E-01 0.500 F 0.345 -0.312 +08° 00' 05.00" 1.000E-01 0.500 F 0.038 -0.779 o 691 1.70 Yes No
2021GY1 O C K 2021-05-07.13563 1.000E-05 10:51:18.520 1.500E-01 0.500 F 0.090 0.780 +03° 34' 10.60" 1.000E-01 0.500 F 0.190 -0.040 21.1 R 0.70 0.55 o 691 1.58 Yes Yes
2021GY1 O C K 2021-05-07.14535 1.000E-05 10:51:15.320 1.500E-01 0.500 F 0.090 -0.017 +03° 34' 06.60" 1.000E-01 0.500 F 0.190 0.270 21.4 R 0.70 0.85 o 691 0.55 Yes Yes
2021JC1 O C K 2021-05-07.15448 1.000E-05 13:02:20.350 1.500E-01 0.500 F 0.020 -0.185 -13° 33' 34.00" 1.000E-01 0.500 F 0.171 -0.244 o 691 0.62 Yes No
2021JC1 O C K 2021-05-07.16782 1.000E-05 13:02:08.370 1.500E-01 0.500 F 0.020 -0.262 -13° 31' 53.10" 1.000E-01 0.500 F 0.171 0.001 o 691 0.53 Yes No
2021GM26 O C K 2021-05-07.17951 1.000E-05 13:57:07.570 1.500E-01 0.500 F 0.091 -0.994 +12° 57' 08.60" 1.000E-01 0.500 F 0.355 -0.115 21.2 R 0.70 -0.34 o 691 2.08 Yes Yes
2021GM26 O C K 2021-05-07.18746 1.000E-05 13:57:07.930 1.500E-01 0.500 F 0.091 -0.257 +12° 57' 37.60" 1.000E-01 0.500 F 0.355 -0.877 21.9 R 0.70 0.36 o 691 1.92 Yes Yes
2021GM26 O C K 2021-05-07.19543 1.000E-05 13:57:08.260 1.500E-01 0.500 F 0.091 0.132 +12° 58' 08.00" 1.000E-01 0.500 F 0.355 -0.271 21.6 R 0.70 0.06 o 691 0.63 Yes Yes
2021JE1 O C K 2021-05-07.24329 1.000E-05 15:10:20.870 1.500E-01 0.500 F 0.151 -0.420 -09° 01' 09.50" 1.000E-01 0.500 F 0.178 0.690 21.4 R 0.70 0.37 o 691 1.62 Yes Yes
2021JE1 O C K 2021-05-07.25432 1.000E-05 15:10:17.540 1.500E-01 0.500 F 0.151 -0.869 -09° 00' 45.00" 1.000E-01 0.500 F 0.178 0.008 21.3 R 0.70 0.27 o 691 1.75 Yes Yes
2008NP3 O C K 2021-05-07.26819 1.000E-05 15:11:57.600 1.500E-01 0.500 F 0.180 1.859 -14° 47' 07.20" 1.000E-01 0.500 F 0.084 -0.749 o 691 3.98 No No
2008NP3 O C K 2021-05-07.27611 1.000E-05 15:11:55.860 1.500E-01 0.500 F 0.180 1.209 -14° 47' 01.40" 1.000E-01 0.500 F 0.084 -0.235 o 691 2.48 Yes No
2008NP3 O C K 2021-05-07.28403 1.000E-05 15:11:54.150 1.500E-01 0.500 F 0.180 1.009 -14° 46' 56.50" 1.000E-01 0.500 F 0.084 -0.637 o 691 2.40 Yes No
2021HD1 O C K 2021-05-07.29190 1.000E-05 16:14:40.930 1.500E-01 0.500 F 0.157 -0.209 -11° 15' 22.10" 1.000E-01 0.500 F 0.182 -0.234 21.8 R 0.70 0.15 o 691 0.67 Yes Yes
2021HD1 O C K 2021-05-07.30634 1.000E-05 16:14:43.250 1.500E-01 0.500 F 0.157 0.010 -11° 16' 10.50" 1.000E-01 0.500 F 0.182 0.868 21.9 R 0.70 0.25 o 691 1.95 Yes Yes
2013LG16 O C K 2021-05-07.39605 1.000E-05 16:42:06.880 1.500E-01 0.500 F -0.005 0.011 -19° 34' 25.40" 1.000E-01 0.500 F 0.051 -0.570 o 691 1.16 Yes No
2013LG16 O C K 2021-05-07.40508 1.000E-05 16:42:06.130 1.500E-01 0.500 F -0.005 0.065 -19° 34' 20.00" 1.000E-01 0.500 F 0.051 0.292 o 691 0.61 Yes No
2013WA44 O C K 2021-05-07.42437 1.000E-05 19:45:48.560 1.500E-01 0.500 F -0.207 0.339 -16° 57' 55.80" 1.000E-01 0.500 F 0.108 -0.548 19.2 R 0.70 -0.19 o 691 1.30 Yes Yes
2013WA44 O C K 2021-05-07.42677 1.000E-05 19:45:49.210 1.500E-01 0.500 F -0.207 0.034 -16° 57' 59.00" 1.000E-01 0.500 F 0.108 -0.015 19.4 R 0.70 0.01 o 691 0.07 Yes Yes
2013WA44 O C K 2021-05-07.42918 1.000E-05 19:45:49.880 1.500E-01 0.500 F -0.207 -0.012 -16° 58' 02.80" 1.000E-01 0.500 F 0.108 -0.072 19.3 R 0.70 -0.09 o 691 0.15 Yes Yes
2021GA8 O C K 2021-05-08.14207 1.000E-05 10:22:49.390 1.500E-01 0.500 F 0.087 -0.259 -15° 40' 10.00" 1.000E-01 0.500 F -0.106 0.746 20.5 R 0.70 -0.37 o 691 1.63 Yes Yes
2021GA8 O C K 2021-05-08.14894 1.000E-05 10:22:45.980 1.500E-01 0.500 F 0.087 0.514 -15° 40' 10.70" 1.000E-01 0.500 F -0.106 0.002 20.0 R 0.70 -0.87 o 691 1.11 Yes Yes
2021GA8 O C K 2021-05-08.15581 1.000E-05 10:22:42.420 1.500E-01 0.500 F 0.087 -0.887 -15° 40' 10.10" 1.000E-01 0.500 F -0.106 0.538 20.9 R 0.70 0.03 o 691 2.20 Yes Yes
2014OP344 O C K 2021-05-08.16272 1.000E-05 09:50:45.960 1.500E-01 0.500 F 0.099 0.320 -16° 27' 34.40" 1.000E-01 0.500 F 0.002 0.113 o 691 0.74 Yes No
2014OP344 O C K 2021-05-08.17234 1.000E-05 09:50:49.220 1.500E-01 0.500 F 0.099 -0.101 -16° 27' 35.30" 1.000E-01 0.500 F 0.002 -0.055 o 691 0.24 Yes No
2014OP344 O C K 2021-05-08.18197 1.000E-05 09:50:52.530 1.500E-01 0.500 F 0.099 0.140 -16° 27' 35.80" 1.000E-01 0.500 F 0.002 0.162 o 691 0.47 Yes No
2020UK5 O C K 2021-05-08.19937 1.000E-05 10:42:33.350 1.500E-01 0.500 F 0.193 0.444 +01° 07' 23.80" 1.000E-01 0.500 F 0.207 -0.287 20.5 R 0.70 -0.43 o 691 1.11 Yes Yes
2020UK5 O C K 2021-05-08.20701 1.000E-05 10:42:35.900 1.500E-01 0.500 F 0.193 0.115 +01° 07' 28.60" 1.000E-01 0.500 F 0.207 0.412 21.1 R 0.70 0.17 o 691 0.87 Yes Yes
2021JN O C K 2021-05-08.24763 1.000E-05 12:35:23.820 1.500E-01 0.500 F 0.300 -1.007 +07° 59' 45.70" 1.000E-01 0.500 F 0.202 -0.083 20.0 R 0.70 0.21 o 691 2.08 Yes Yes
2021JN O C K 2021-05-08.25062 1.000E-05 12:35:22.180 1.500E-01 0.500 F 0.300 1.337 +07° 58' 22.20" 1.000E-01 0.500 F 0.202 -0.114 20.3 R 0.70 0.51 o 691 2.77 Yes Yes
2021JC1 O C K 2021-05-08.25915 1.000E-05 12:43:57.200 1.500E-01 0.500 F 0.466 0.195 -10° 47' 33.80" 1.000E-01 0.500 F 0.196 0.185 20.0 R 0.70 0.32 o 691 0.53 Yes Yes
2021JC1 O C K 2021-05-08.26224 1.000E-05 12:43:53.490 1.500E-01 0.500 F 0.466 -0.121 -10° 47' 00.90" 1.000E-01 0.500 F 0.196 -0.024 20.1 R 0.70 0.42 o 691 0.28 Yes Yes
2021JC1 O C K 2021-05-08.26532 1.000E-05 12:43:49.810 1.500E-01 0.500 F 0.466 -0.137 -10° 46' 27.80" 1.000E-01 0.500 F 0.196 0.033 19.7 R 0.70 0.02 o 691 0.31 Yes Yes
2021JJ O C K 2021-05-08.27191 1.000E-05 13:04:41.760 1.500E-01 0.500 F 0.380 0.430 -00° 48' 58.80" 1.000E-01 0.500 F 0.234 0.140 20.8 R 0.70 0.17 o 691 0.92 Yes Yes
2021JJ O C K 2021-05-08.27871 1.000E-05 13:04:40.010 1.500E-01 0.500 F 0.380 -0.343 -00° 49' 50.30" 1.000E-01 0.500 F 0.234 0.225 20.8 R 0.70 0.17 o 691 0.83 Yes Yes
2021JJ O C K 2021-05-08.28550 1.000E-05 13:04:38.380 1.500E-01 0.500 F 0.380 0.584 -00° 50' 42.00" 1.000E-01 0.500 F 0.234 0.054 21.4 R 0.70 0.77 o 691 1.19 Yes Yes
2021JB O C K 2021-05-08.33132 1.000E-05 13:39:12.420 1.500E-01 0.500 F 0.166 -0.168 -20° 57' 26.00" 1.000E-01 0.500 F -0.106 -0.145 o 691 0.51 Yes No
2021JB O C K 2021-05-08.33868 1.000E-05 13:39:09.390 1.500E-01 0.500 F 0.166 0.013 -20° 57' 42.20" 1.000E-01 0.500 F -0.106 0.060 o 691 0.14 Yes No
2021JB O C K 2021-05-08.34603 1.000E-05 13:39:06.400 1.500E-01 0.500 F 0.166 0.471 -20° 57' 58.90" 1.000E-01 0.500 F -0.106 -0.379 o 691 1.33 Yes No
2021JR1 O C K 2021-05-08.35587 1.000E-05 13:43:18.420 1.500E-01 0.500 F 0.217 0.097 +24° 47' 19.00" 1.000E-01 0.500 F 0.116 -1.030 o 691 2.10 Yes No
2021JR1 O C K 2021-05-08.36309 1.000E-05 13:43:15.630 1.500E-01 0.500 F 0.217 -0.019 +24° 46' 50.70" 1.000E-01 0.500 F 0.116 0.544 o 691 1.10 Yes No
2021JR1 O C K 2021-05-08.37031 1.000E-05 13:43:12.860 1.500E-01 0.500 F 0.217 0.070 +24° 46' 20.20" 1.000E-01 0.500 F 0.116 -0.049 o 691 0.17 Yes No
2021JE1 O C K 2021-05-08.42377 1.000E-05 15:04:45.820 1.500E-01 0.500 F 0.170 1.275 -08° 11' 19.70" 1.000E-01 0.500 F 0.151 0.719 o 691 2.94 Yes No
2021JE1 O C K 2021-05-08.43211 1.000E-05 15:04:42.910 1.500E-01 0.500 F 0.170 0.286 -08° 10' 56.50" 1.000E-01 0.500 F 0.151 0.324 o 691 0.87 Yes No
2021JE1 O C K 2021-05-08.44044 1.000E-05 15:04:40.100 1.500E-01 0.500 F 0.170 0.536 -08° 10' 33.50" 1.000E-01 0.500 F 0.151 -0.307 o 691 1.24 Yes No
2021JF O C K 2021-05-08.45371 1.000E-05 14:56:02.890 1.500E-01 0.500 F 0.082 0.078 +18° 01' 35.40" 1.000E-01 0.500 F 0.227 0.111 20.9 R 0.70 0.05 o 691 0.27 Yes Yes
2021JF O C K 2021-05-08.46030 1.000E-05 14:56:01.670 1.500E-01 0.500 F 0.082 0.420 +18° 02' 23.90" 1.000E-01 0.500 F 0.227 -0.120 21.2 R 0.70 0.35 o 691 0.89 Yes Yes
2021JF O C K 2021-05-08.46690 1.000E-05 14:56:00.500 1.500E-01 0.500 F 0.082 1.272 +18° 03' 12.50" 1.000E-01 0.500 F 0.227 -0.235 o 691 2.65 Yes No
2001VH5 O C K 2021-05-09.13926 1.000E-05 11:50:12.480 1.500E-01 0.500 F 0.363 0.126 -21° 41' 50.50" 1.000E-01 0.500 F 0.083 0.076 o 691 0.32 Yes No
2001VH5 O C K 2021-05-09.14788 1.000E-05 11:50:12.520 1.500E-01 0.500 F 0.350 -0.141 -21° 41' 24.30" 1.000E-01 0.500 F 0.001 0.165 o 691 0.47 Yes No
2001VH5 O C K 2021-05-09.15648 1.000E-05 11:50:12.540 1.500E-01 0.500 F 0.350 -0.695 -21° 40' 58.50" 1.000E-01 0.500 F 0.001 -0.181 o 691 1.60 Yes No
2021CB9 O C K 2021-05-09.45277 1.000E-05 16:13:50.490 1.500E-01 0.500 F 0.255 -0.377 +08° 08' 16.60" 1.000E-01 0.500 F 0.250 -0.607 21.2 R 0.70 -0.23 o 691 1.44 Yes Yes
2021CB9 O C K 2021-05-09.46052 1.000E-05 16:13:51.020 1.500E-01 0.500 F 0.255 -0.033 +08° 08' 05.70" 1.000E-01 0.500 F 0.250 -0.079 21.5 R 0.70 0.07 o 691 0.16 Yes Yes
2021CB9 O C K 2021-05-09.46827 1.000E-05 16:13:51.540 1.500E-01 0.500 F 0.255 0.080 +08° 07' 54.30" 1.000E-01 0.500 F 0.250 -0.035 22.0 R 0.70 0.57 o 691 0.18 Yes Yes
2021CY10 O C K 2021-05-10.16088 1.000E-05 10:20:00.700 1.500E-01 0.500 F 0.256 -0.143 +08° 12' 21.20" 1.000E-01 0.500 F 0.167 0.036 21.3 R 0.70 0.07 o 691 0.30 Yes Yes
2021CY10 O C K 2021-05-10.17731 1.000E-05 10:20:03.680 1.500E-01 0.500 F 0.256 -0.608 +08° 11' 52.70" 1.000E-01 0.500 F 0.167 0.126 21.0 R 0.70 -0.23 o 691 1.26 Yes Yes
2021CY10 O C K 2021-05-10.19375 1.000E-05 10:20:06.720 1.500E-01 0.500 F 0.256 -0.353 +08° 11' 24.00" 1.000E-01 0.500 F 0.167 0.081 21.5 R 0.70 0.27 o 691 0.74 Yes Yes
2021FN4 O C K 2021-05-10.21193 1.000E-05 11:41:44.590 1.500E-01 0.500 F 0.123 -0.124 +21° 23' 18.10" 1.000E-01 0.500 F 0.289 -0.063 18.1 R 0.70 -1.08 o 691 0.28 Yes Yes
2021FN4 O C K 2021-05-10.22251 1.000E-05 11:41:41.630 1.500E-01 0.500 F 0.123 0.013 +21° 23' 09.50" 1.000E-01 0.500 F 0.289 -0.013 19.1 R 0.70 -0.08 o 691 0.05 Yes Yes
2021FN4 O C K 2021-05-10.23310 1.000E-05 11:41:38.650 1.500E-01 0.500 F 0.123 -0.214 +21° 23' 00.60" 1.000E-01 0.500 F 0.289 -0.074 20.6 R 0.70 1.42 o 691 0.45 Yes Yes
2021JP3 O C K 2021-05-10.24575 1.000E-05 13:42:08.610 1.500E-01 0.500 F 0.265 -0.516 -08° 20' 57.20" 1.000E-01 0.500 F 0.164 0.606 21.7 R 0.70 0.23 o 691 1.60 Yes Yes
2021GY8 O C H 2021-05-10.25845 1.000E-05 13:55:24.020 1.500E-01 0.500 F 0.161 -0.049 -08° 23' 11.90" 1.000E-01 0.500 F 0.119 0.246 21.1 R 0.70 0.28 o 691 0.51 Yes Yes
2021JP3 O C K 2021-05-10.26094 1.000E-05 13:42:10.390 1.500E-01 0.500 F 0.265 0.120 -08° 21' 34.10" 1.000E-01 0.500 F 0.164 0.336 21.9 R 0.70 0.43 o 691 0.72 Yes Yes
2021GY8 O C H 2021-05-10.27365 1.000E-05 13:55:24.380 1.500E-01 0.500 F 0.161 -0.082 -08° 23' 26.40" 1.000E-01 0.500 F 0.119 0.281 21.3 R 0.70 0.48 o 691 0.59 Yes Yes
2021JP3 O C K 2021-05-10.27615 1.000E-05 13:42:12.090 1.500E-01 0.500 F 0.265 -0.587 -08° 22' 10.80" 1.000E-01 0.500 F 0.164 0.253 21.5 R 0.70 0.03 o 691 1.29 Yes Yes
2021GY8 O C H 2021-05-10.28885 1.000E-05 13:55:24.750 1.500E-01 0.500 F 0.161 -0.003 -08° 23' 40.90" 1.000E-01 0.500 F 0.119 0.281 21.3 R 0.70 0.48 o 691 0.57 Yes Yes
2021JM O C K 2021-05-10.29365 1.000E-05 14:15:33.220 1.500E-01 0.500 F 0.181 0.354 -11° 04' 51.00" 1.000E-01 0.500 F -0.057 -0.016 21.7 R 0.70 0.69 o 691 0.79 Yes Yes
2021JB2 O C K 2021-05-10.29943 1.000E-05 14:34:34.050 1.500E-01 0.500 F 0.148 -0.601 +19° 05' 45.10" 1.000E-01 0.500 F 0.313 0.185 21.4 R 0.70 0.29 o 691 1.36 Yes Yes
2021JM O C K 2021-05-10.31184 1.000E-05 14:15:33.900 1.500E-01 0.500 F 0.181 0.422 -11° 03' 58.70" 1.000E-01 0.500 F -0.057 0.011 21.3 R 0.70 0.28 o 691 0.94 Yes Yes
2021JB2 O C K 2021-05-10.31766 1.000E-05 14:34:41.180 1.500E-01 0.500 F 0.148 -0.350 +19° 04' 23.20" 1.000E-01 0.500 F 0.313 -0.533 21.7 R 0.70 0.59 o 691 1.38 Yes Yes
2021JM O C K 2021-05-10.33007 1.000E-05 14:15:34.550 1.500E-01 0.500 F 0.181 -0.091 -11° 03' 06.30" 1.000E-01 0.500 F -0.057 0.038 21.3 R 0.70 0.28 o 691 0.22 Yes Yes
2021JB2 O C K 2021-05-10.33591 1.000E-05 14:34:48.370 1.500E-01 0.500 F 0.148 0.496 +19° 03' 02.10" 1.000E-01 0.500 F 0.313 -0.041 o 691 1.07 Yes No
2021CT5 O C K 2021-05-10.42675 1.000E-05 18:30:47.900 1.500E-01 0.500 F 0.076 -0.203 +08° 30' 36.50" 1.000E-01 0.500 F 0.189 0.082 17.8 R 0.70 -0.48 o 691 0.45 Yes Yes
2021CT5 O C K 2021-05-10.43915 1.000E-05 18:30:46.350 1.500E-01 0.500 F 0.076 0.308 +08° 29' 24.20" 1.000E-01 0.500 F 0.189 -0.237 17.8 R 0.70 -0.47 o 691 0.80 Yes Yes
2021CT5 O C K 2021-05-10.45155 1.000E-05 18:30:44.730 1.500E-01 0.500 F 0.076 -0.196 +08° 28' 12.30" 1.000E-01 0.500 F 0.189 -0.104 o 691 0.45 Yes No
2021EO4 O C K 2021-05-11.14786 1.000E-05 10:10:33.180 1.500E-01 0.500 F 0.034 1.677 +29° 24' 34.70" 1.000E-01 0.500 F 0.322 -1.366 o 691 4.08 No No
2021EO4 O C K 2021-05-11.15876 1.000E-05 10:10:32.940 1.500E-01 0.500 F 0.034 -0.595 +29° 24' 31.90" 1.000E-01 0.500 F 0.322 -0.417 22.0 R 0.70 0.46 o 691 1.52 Yes Yes
2021EO4 O C K 2021-05-11.16966 1.000E-05 10:10:32.890 1.500E-01 0.500 F 0.034 -0.399 +29° 24' 28.30" 1.000E-01 0.500 F 0.322 -0.253 22.2 R 0.70 0.66 o 691 0.99 Yes Yes
2021CD3 O C K 2021-05-11.18054 1.000E-05 09:26:40.880 1.500E-01 0.500 F 0.027 -1.404 +23° 58' 29.00" 1.000E-01 0.500 F 0.416 1.563 o 691 4.05 No No
2018DX3 O C K 2021-05-11.19288 1.000E-05 09:30:40.730 1.500E-01 0.500 F 0.073 1.168 +11° 35' 18.90" 1.000E-01 0.500 F 0.259 -0.450 21.4 R 0.70 1.13 o 691 2.51 Yes Yes
2021CD3 O C K 2021-05-11.19723 1.000E-05 09:26:43.480 1.500E-01 0.500 F 0.027 0.257 +23° 58' 23.00" 1.000E-01 0.500 F 0.416 -0.125 22.0 R 0.70 0.65 o 691 0.60 Yes Yes
2018DX3 O C K 2021-05-11.20958 1.000E-05 09:30:42.510 1.500E-01 0.500 F 0.073 1.225 +11° 34' 48.70" 1.000E-01 0.500 F 0.259 0.791 21.6 R 0.70 1.33 o 691 2.92 Yes Yes
2021CD3 O C K 2021-05-11.21393 1.000E-05 09:26:45.970 1.500E-01 0.500 F 0.027 0.303 +23° 58' 17.80" 1.000E-01 0.500 F 0.416 -0.976 22.5 R 0.70 1.15 o 691 2.12 Yes Yes
2018DX3 O C K 2021-05-11.22628 1.000E-05 09:30:44.160 1.500E-01 0.500 F 0.073 -0.786 +11° 34' 15.30" 1.000E-01 0.500 F 0.259 -1.136 o 691 2.77 Yes No
2014CS O C K 2021-05-12.15974 1.000E-05 10:25:41.630 1.500E-01 0.500 F 0.136 -0.162 -07° 33' 12.80" 1.000E-01 0.500 F 0.191 -0.675 20.3 R 0.70 -0.23 o 691 1.40 Yes Yes
2014QC433 O C K 2021-05-12.17046 1.000E-05 11:06:23.190 1.500E-01 0.500 F 0.201 0.280 +19° 21' 34.20" 1.000E-01 0.500 F 0.335 -0.168 21.8 R 0.70 0.43 o 691 0.66 Yes Yes
2014CS O C K 2021-05-12.17691 1.000E-05 10:25:44.020 1.500E-01 0.500 F 0.136 0.216 -07° 33' 24.80" 1.000E-01 0.500 F 0.191 -0.142 20.1 R 0.70 -0.43 o 691 0.51 Yes Yes
2014QC433 O C K 2021-05-12.18768 1.000E-05 11:06:23.470 1.500E-01 0.500 F 0.201 -0.057 +19° 21' 38.40" 1.000E-01 0.500 F 0.335 0.291 21.9 R 0.70 0.53 o 691 0.60 Yes Yes
2014CS O C K 2021-05-12.19416 1.000E-05 10:25:46.390 1.500E-01 0.500 F 0.136 0.053 -07° 33' 37.40" 1.000E-01 0.500 F 0.191 -0.167 20.9 R 0.70 0.37 o 691 0.35 Yes Yes
2014QC433 O C K 2021-05-12.20489 1.000E-05 11:06:23.790 1.500E-01 0.500 F 0.201 0.135 +19° 21' 42.00" 1.000E-01 0.500 F 0.335 0.187 22.3 R 0.70 0.93 o 691 0.47 Yes Yes
2021JR1 O C K 2021-05-12.30258 1.000E-05 13:20:48.870 1.500E-01 0.500 F 0.202 0.302 +20° 12' 36.80" 1.000E-01 0.500 F 0.311 -0.608 21.1 R 0.70 0.08 o 691 1.41 Yes Yes
2021JR1 O C K 2021-05-12.32100 1.000E-05 13:20:42.740 1.500E-01 0.500 F 0.202 -0.185 +20° 11' 18.20" 1.000E-01 0.500 F 0.311 -0.155 21.0 R 0.70 -0.02 o 691 0.50 Yes Yes
2021JR1 O C K 2021-05-12.33944 1.000E-05 13:20:36.680 1.500E-01 0.500 F 0.202 0.011 +20° 09' 58.70" 1.000E-01 0.500 F 0.311 -0.348 21.5 R 0.70 0.48 o 691 0.72 Yes Yes
2021GB24 O C K 2021-05-12.35786 1.000E-05 14:32:40.460 1.500E-01 0.500 F 0.123 0.262 -03° 09' 26.90" 1.000E-01 0.500 F 0.151 -0.443 21.4 R 0.70 -0.16 o 691 1.05 Yes Yes
2021GB24 O C K 2021-05-12.37628 1.000E-05 14:32:37.320 1.500E-01 0.500 F 0.123 0.163 -03° 09' 27.20" 1.000E-01 0.500 F 0.151 0.183 22.4 R 0.70 0.84 o 691 0.50 Yes Yes
2021GB24 O C K 2021-05-12.39469 1.000E-05 14:32:34.200 1.500E-01 0.500 F 0.123 0.150 -03° 09' 28.20" 1.000E-01 0.500 F 0.151 0.102 21.5 R 0.70 -0.06 o 691 0.37 Yes Yes
2021GA24 O C K 2021-05-12.40929 1.000E-05 15:52:36.850 1.500E-01 0.500 F 0.265 0.246 -09° 28' 44.10" 1.000E-01 0.500 F 0.237 0.256 22.1 R 0.70 0.43 o 691 0.83 Yes Yes
2021GA24 O C K 2021-05-12.42405 1.000E-05 15:52:36.440 1.500E-01 0.500 F 0.265 -0.160 -09° 29' 18.20" 1.000E-01 0.500 F 0.237 -0.337 o 691 0.77 Yes No
2021GA24 O C K 2021-05-12.43882 1.000E-05 15:52:36.110 1.500E-01 0.500 F 0.265 0.466 -09° 29' 51.40" 1.000E-01 0.500 F 0.237 -0.052 23.0 R 0.70 1.34 o 691 1.07 Yes Yes
2008JG O C K 2021-05-12.45733 1.000E-05 18:36:41.440 1.500E-01 0.500 F -0.022 0.071 +09° 26' 08.80" 1.000E-01 0.500 F 0.197 -0.117 20.3 R 0.70 0.50 o 691 0.28 Yes Yes
2013WA44 O C K 2021-05-12.46066 1.000E-05 20:12:48.880 1.500E-01 0.500 F -0.022 -0.210 -18° 57' 14.90" 1.000E-01 0.500 F 0.022 -0.120 19.3 R 0.70 -0.09 o 691 0.49 Yes Yes
2008JG O C K 2021-05-12.46487 1.000E-05 18:36:42.090 1.500E-01 0.500 F -0.022 -0.371 +09° 26' 24.70" 1.000E-01 0.500 F 0.197 0.519 20.2 R 0.70 0.40 o 691 1.28 Yes Yes
2013WA44 O C K 2021-05-12.46836 1.000E-05 20:12:50.960 1.500E-01 0.500 F -0.022 0.138 -18° 57' 26.00" 1.000E-01 0.500 F 0.022 0.024 19.3 R 0.70 -0.09 o 691 0.28 Yes Yes
2008JG O C K 2021-05-12.47260 1.000E-05 18:36:42.800 1.500E-01 0.500 F -0.022 -0.186 +09° 26' 39.50" 1.000E-01 0.500 F 0.197 -0.322 20.3 R 0.70 0.50 o 691 0.74 Yes Yes
2013WA44 O C K 2021-05-12.47614 1.000E-05 20:12:53.030 1.500E-01 0.500 F -0.022 0.122 -18° 57' 37.30" 1.000E-01 0.500 F 0.022 -0.005 19.2 R 0.70 -0.19 o 691 0.25 Yes Yes
2021EV O C K 2021-05-13.14015 1.000E-05 09:23:08.420 1.500E-01 0.500 F 0.038 0.225 +15° 17' 43.10" 1.000E-01 0.500 F 0.342 0.865 21.9 R 0.70 1.00 o 691 1.84 Yes Yes
2018DX3 O C K 2021-05-13.14498 1.000E-05 09:34:23.490 1.500E-01 0.500 F 0.134 -0.241 +10° 33' 38.90" 1.000E-01 0.500 F 0.220 -0.021 20.4 R 0.70 0.14 o 691 0.48 Yes Yes
2021EV O C K 2021-05-13.14893 1.000E-05 09:23:09.880 1.500E-01 0.500 F 0.038 -0.262 +15° 17' 19.50" 1.000E-01 0.500 F 0.342 0.023 21.2 R 0.70 0.30 o 691 0.54 Yes Yes
2018DX3 O C K 2021-05-13.15377 1.000E-05 09:34:24.490 1.500E-01 0.500 F 0.134 0.221 +10° 33' 21.10" 1.000E-01 0.500 F 0.220 -0.807 19.9 R 0.70 -0.36 o 691 1.68 Yes Yes
2021EV O C K 2021-05-13.15772 1.000E-05 09:23:11.370 1.500E-01 0.500 F 0.038 -0.372 +15° 16' 57.00" 1.000E-01 0.500 F 0.342 0.324 21.3 R 0.70 0.40 o 691 1.02 Yes Yes
2018DX3 O C K 2021-05-13.16256 1.000E-05 09:34:25.450 1.500E-01 0.500 F 0.134 0.062 +10° 33' 04.90" 1.000E-01 0.500 F 0.220 0.017 20.5 R 0.70 0.24 o 691 0.13 Yes Yes
2021GY1 O C K 2021-05-13.16655 1.000E-05 10:19:07.970 1.500E-01 0.500 F 0.188 0.518 +02° 33' 43.10" 1.000E-01 0.500 F 0.106 0.046 20.6 R 0.70 -0.02 o 691 1.07 Yes Yes
2021CY10 O C K 2021-05-13.17301 1.000E-05 10:30:05.590 1.500E-01 0.500 F 0.358 0.131 +06° 42' 31.30" 1.000E-01 0.500 F 0.128 -0.175 21.5 R 0.70 0.29 o 691 0.44 Yes Yes
2021GY1 O C K 2021-05-13.18256 1.000E-05 10:19:01.740 1.500E-01 0.500 F 0.188 0.289 +02° 33' 30.80" 1.000E-01 0.500 F 0.106 0.240 20.7 R 0.70 0.08 o 691 0.78 Yes Yes
2021CY10 O C K 2021-05-13.18902 1.000E-05 10:30:08.750 1.500E-01 0.500 F 0.358 0.173 +06° 42' 01.50" 1.000E-01 0.500 F 0.128 -0.237 o 691 0.60 Yes No
2021GY1 O C K 2021-05-13.19856 1.000E-05 10:18:55.530 1.500E-01 0.500 F 0.188 -0.113 +02° 33' 18.10" 1.000E-01 0.500 F 0.106 0.075 20.8 R 0.70 0.18 o 691 0.28 Yes Yes
2021CY10 O C K 2021-05-13.20501 1.000E-05 10:30:11.910 1.500E-01 0.500 F 0.358 0.116 +06° 41' 31.80" 1.000E-01 0.500 F 0.128 -0.198 22.1 R 0.70 0.89 o 691 0.47 Yes Yes
2021HS O C K 2021-05-13.21630 1.000E-05 11:44:22.310 1.500E-01 0.500 F 0.281 -0.279 -20° 54' 27.30" 1.000E-01 0.500 F -0.097 0.032 20.1 R 0.70 -0.15 o 691 0.57 Yes Yes
2021AD7 O C K 2021-05-13.22082 1.000E-05 11:56:08.080 1.500E-01 0.500 F 0.407 -0.200 -22° 19' 23.90" 1.000E-01 0.500 F 0.089 -0.002 19.3 R 0.70 0.06 o 691 0.40 Yes Yes
2021HS O C K 2021-05-13.22509 1.000E-05 11:44:21.470 1.500E-01 0.500 F 0.281 -0.755 -20° 54' 15.90" 1.000E-01 0.500 F -0.097 0.247 19.7 R 0.70 -0.55 o 691 1.61 Yes Yes
2021AD7 O C K 2021-05-13.22961 1.000E-05 11:56:09.490 1.500E-01 0.500 F 0.407 -0.013 -22° 19' 25.10" 1.000E-01 0.500 F 0.089 -0.007 19.4 R 0.70 0.16 o 691 0.03 Yes Yes
2021HS O C K 2021-05-13.23387 1.000E-05 11:44:20.710 1.500E-01 0.500 F 0.281 -0.140 -20° 54' 05.00" 1.000E-01 0.500 F -0.097 -0.037 20.5 R 0.70 0.25 o 691 0.29 Yes Yes
2021AD7 O C K 2021-05-13.23839 1.000E-05 11:56:10.890 1.500E-01 0.500 F 0.407 0.035 -22° 19' 26.30" 1.000E-01 0.500 F 0.089 -0.033 19.3 R 0.70 0.06 o 691 0.10 Yes Yes
2021JN2 O C K 2021-05-13.25085 1.000E-05 13:20:15.200 1.500E-01 0.500 F 0.173 0.027 +05° 59' 51.70" 1.000E-01 0.500 F 0.254 0.303 21.7 R 0.70 0.78 o 691 0.62 Yes Yes
2021JN2 O C K 2021-05-13.26592 1.000E-05 13:20:16.750 1.500E-01 0.500 F 0.173 -0.336 +05° 58' 58.10" 1.000E-01 0.500 F 0.254 -0.739 20.8 R 0.70 -0.12 o 691 1.66 Yes Yes
2021JN2 O C K 2021-05-13.28093 1.000E-05 13:20:18.350 1.500E-01 0.500 F 0.173 0.042 +05° 58' 06.40" 1.000E-01 0.500 F 0.254 -0.100 21.1 R 0.70 0.18 o 691 0.22 Yes Yes
2021JO O C K 2021-05-13.30445 1.000E-05 14:02:34.050 1.500E-01 0.500 F 0.330 -0.290 -10° 51' 26.20" 1.000E-01 0.500 F 0.122 -0.032 21.6 R 0.70 0.04 o 691 0.70 Yes Yes
2021JO O C K 2021-05-13.32562 1.000E-05 14:02:29.150 1.500E-01 0.500 F 0.330 -0.224 -10° 51' 50.10" 1.000E-01 0.500 F 0.122 0.012 o 691 0.54 Yes No
2021JO O C K 2021-05-13.34678 1.000E-05 14:02:24.310 1.500E-01 0.500 F 0.330 0.507 -10° 52' 13.80" 1.000E-01 0.500 F 0.122 0.180 22.2 R 0.70 0.64 o 691 1.27 Yes Yes
2019HH4 O C K 2021-05-13.36123 1.000E-05 14:57:21.970 1.500E-01 0.500 F 0.207 -0.055 +07° 17' 55.50" 1.000E-01 0.500 F 0.172 -0.167 21.1 R 0.70 -0.03 o 691 0.36 Yes Yes
2019HH4 O C K 2021-05-13.37999 1.000E-05 14:57:20.050 1.500E-01 0.500 F 0.207 0.580 +07° 18' 34.50" 1.000E-01 0.500 F 0.172 -0.181 o 691 1.23 Yes No
2019HH4 O C K 2021-05-13.39867 1.000E-05 14:57:18.070 1.500E-01 0.500 F 0.207 0.129 +07° 19' 13.50" 1.000E-01 0.500 F 0.172 -0.005 20.5 R 0.70 -0.63 o 691 0.26 Yes Yes
2021JB3 O C K 2021-05-13.43086 1.000E-05 16:54:52.560 1.500E-01 0.500 F -0.103 -0.063 -10° 49' 41.20" 1.000E-01 0.500 F 0.140 -0.100 21.1 R 0.70 -0.02 o 691 0.30 Yes Yes
2021JB3 O C K 2021-05-13.43956 1.000E-05 16:54:53.580 1.500E-01 0.500 F -0.103 0.353 -10° 50' 23.50" 1.000E-01 0.500 F 0.140 0.343 o 691 1.26 Yes No
2008JG O C H 2021-05-13.44937 1.000E-05 18:38:22.460 1.500E-01 0.500 F -0.035 0.025 +10° 00' 07.00" 1.000E-01 0.500 F 0.195 0.196 20.1 R 0.70 0.35 o 691 0.41 Yes Yes
2020OM5 O C K 2021-05-13.45088 1.000E-05 18:48:07.970 1.500E-01 0.500 F 0.163 -0.350 +07° 07' 33.40" 1.000E-01 0.500 F 0.468 -0.223 20.7 R 0.70 -0.29 o 691 0.86 Yes Yes
2008JG O C H 2021-05-13.45728 1.000E-05 18:38:23.160 1.500E-01 0.500 F -0.035 -0.238 +10° 00' 23.10" 1.000E-01 0.500 F 0.195 -0.168 20.1 R 0.70 0.35 o 691 0.58 Yes Yes
2008JG O C H 2021-05-13.46519 1.000E-05 18:38:23.900 1.500E-01 0.500 F -0.035 0.084 +10° 00' 39.70" 1.000E-01 0.500 F 0.195 -0.025 20.7 R 0.70 0.95 o 691 0.19 Yes Yes
2020OM5 O C K 2021-05-13.46670 1.000E-05 18:48:06.340 1.500E-01 0.500 F 0.163 0.000 +07° 07' 30.70" 1.000E-01 0.500 F 0.468 -0.169 o 691 0.35 Yes No
2021JK3 O C K 2021-05-14.19244 1.000E-05 13:44:15.650 1.500E-01 0.500 F 0.218 -0.384 -03° 22' 41.80" 1.000E-01 0.500 F 0.084 0.405 21.1 R 0.70 0.23 o 691 1.12 Yes Yes
2021JK3 O C K 2021-05-14.20212 1.000E-05 13:44:11.100 1.500E-01 0.500 F 0.218 -0.495 -03° 22' 32.70" 1.000E-01 0.500 F 0.084 0.101 20.8 R 0.70 -0.07 o 691 1.02 Yes Yes
2021JK3 O C K 2021-05-14.21180 1.000E-05 13:44:06.540 1.500E-01 0.500 F 0.218 -0.665 -03° 22' 22.50" 1.000E-01 0.500 F 0.084 0.882 21.1 R 0.70 0.23 o 691 2.22 Yes Yes
2021JC3 O C K 2021-05-14.22286 1.000E-05 14:09:51.500 1.500E-01 0.500 F 0.328 -0.131 -29° 17' 45.70" 1.000E-01 0.500 F 0.273 -0.211 22.4 R 0.70 0.98 o 691 0.64 Yes Yes
2021JC3 O C K 2021-05-14.24941 1.000E-05 14:09:55.040 1.500E-01 0.500 F 0.328 0.162 -29° 17' 58.60" 1.000E-01 0.500 F 0.273 0.368 21.9 R 0.70 0.48 o 691 1.03 Yes Yes
2021JT5 O C 2021-05-14.27040 1.000E-05 16:59:55.340 1.500E-01 0.500 F 0.054 0.328 +09° 19' 17.20" 1.000E-01 0.500 F 0.212 0.136 21.0 R 0.70 0.31 o 691 0.71 Yes Yes
2021JT5 O C 2021-05-14.27404 1.000E-05 16:59:55.390 1.500E-01 0.500 F 0.054 0.062 +09° 19' 18.80" 1.000E-01 0.500 F 0.212 -0.099 21.3 R 0.70 0.61 o 691 0.24 Yes Yes
2021JT5 O C 2021-05-14.28857 1.000E-05 16:59:55.660 1.500E-01 0.500 F 0.054 0.094 +09° 19' 26.50" 1.000E-01 0.500 F 0.212 0.290 20.9 R 0.70 0.21 o 691 0.61 Yes Yes
2021JV2 O C K 2021-05-14.32052 1.000E-05 15:09:21.950 1.500E-01 0.500 F 0.136 -0.044 +14° 31' 07.00" 1.000E-01 0.500 F 0.237 0.146 o 691 0.44 Yes No
2021JV2 O C K 2021-05-14.32737 1.000E-05 15:09:21.160 1.500E-01 0.500 F 0.136 0.436 +14° 31' 11.10" 1.000E-01 0.500 F 0.237 -0.091 o 691 1.01 Yes No
2021JV2 O C K 2021-05-14.33422 1.000E-05 15:09:20.280 1.500E-01 0.500 F 0.136 -0.421 +14° 31' 15.20" 1.000E-01 0.500 F 0.237 -0.290 21.7 R 0.70 0.17 o 691 1.06 Yes Yes
2021JG1 O C 2021-05-15.24059 1.000E-05 15:54:12.880 1.500E-01 0.500 F 0.262 0.156 -06° 09' 26.50" 1.000E-01 0.500 F 0.055 -0.300 20.0 R 0.70 0.74 o 691 0.68 Yes Yes
2021JG1 O C 2021-05-15.24847 1.000E-05 15:54:12.750 1.500E-01 0.500 F 0.262 -0.074 -06° 09' 12.20" 1.000E-01 0.500 F 0.055 0.269 19.7 R 0.70 0.44 o 691 0.56 Yes Yes
2021JG1 O C 2021-05-15.25372 1.000E-05 15:54:12.690 1.500E-01 0.500 F 0.262 0.252 -06° 09' 03.30" 1.000E-01 0.500 F 0.055 -0.006 19.2 R 0.70 -0.06 o 691 0.50 Yes Yes
2021JC2 O C K 2021-05-15.25627 1.000E-05 16:01:29.030 1.500E-01 0.500 F 0.116 0.544 +11° 41' 02.50" 1.000E-01 0.500 F 0.134 -0.328 20.3 R 0.70 -0.35 o 691 1.33 Yes Yes
2021JC2 O C K 2021-05-15.27003 1.000E-05 16:01:34.010 1.500E-01 0.500 F 0.116 -0.054 +11° 41' 06.60" 1.000E-01 0.500 F 0.134 -0.147 20.9 R 0.70 0.25 o 691 0.33 Yes Yes
2021JC2 O C K 2021-05-15.28379 1.000E-05 16:01:39.000 1.500E-01 0.500 F 0.116 -0.254 +11° 41' 10.40" 1.000E-01 0.500 F 0.134 -0.150 20.7 R 0.70 0.05 o 691 0.62 Yes Yes
2021JD3 O C K 2021-05-15.33236 1.000E-05 15:34:20.380 1.500E-01 0.500 F 0.097 0.210 +22° 18' 00.40" 1.000E-01 0.500 F 0.148 -0.036 21.4 R 0.70 0.24 o 691 0.44 Yes Yes
2021JD3 O C K 2021-05-15.35525 1.000E-05 15:34:27.290 1.500E-01 0.500 F 0.097 0.487 +22° 20' 04.90" 1.000E-01 0.500 F 0.148 -0.759 21.6 R 0.70 0.43 o 691 1.89 Yes Yes
2021JD3 O C K 2021-05-15.37818 1.000E-05 15:34:34.220 1.500E-01 0.500 F 0.097 0.488 +22° 22' 08.30" 1.000E-01 0.500 F 0.148 -1.253 21.3 R 0.70 0.13 o 691 2.82 Yes Yes
2021JG3 O C K 2021-05-16.15966 1.000E-05 10:34:04.440 1.500E-01 0.500 F 0.205 0.137 -04° 06' 18.30" 1.000E-01 0.500 F 0.130 0.200 20.7 R 0.70 -0.41 o 691 0.49 Yes Yes
2021JG3 O C K 2021-05-16.17537 1.000E-05 10:34:07.070 1.500E-01 0.500 F 0.205 -0.049 -04° 07' 38.40" 1.000E-01 0.500 F 0.130 0.968 21.9 R 0.70 0.79 o 691 2.00 Yes Yes
2021JW6 O C K 2021-05-16.19909 1.000E-05 13:07:59.000 1.500E-01 0.500 F 0.218 -0.605 +08° 45' 06.00" 1.000E-01 0.500 F 0.218 0.534 21.7 R 0.70 0.35 o 691 1.63 Yes Yes
2021JW6 O C K 2021-05-16.20833 1.000E-05 13:08:00.010 1.500E-01 0.500 F 0.218 0.046 +08° 44' 41.50" 1.000E-01 0.500 F 0.218 0.344 22.6 R 0.70 1.25 o 691 0.70 Yes Yes
2021JW6 O C K 2021-05-16.21756 1.000E-05 13:08:01.000 1.500E-01 0.500 F 0.218 0.395 +08° 44' 16.50" 1.000E-01 0.500 F 0.218 -0.279 21.2 R 0.70 -0.15 o 691 0.97 Yes Yes
2021JP3 O C K 2021-05-16.22864 1.000E-05 14:05:15.490 1.500E-01 0.500 F 0.274 -0.343 -14° 04' 29.20" 1.000E-01 0.500 F 0.216 -0.385 21.2 R 0.70 0.53 o 691 1.04 Yes Yes
2021JP3 O C K 2021-05-16.23572 1.000E-05 14:05:17.530 1.500E-01 0.500 F 0.274 -0.250 -14° 05' 03.30" 1.000E-01 0.500 F 0.216 -0.380 20.9 R 0.70 0.23 o 691 0.92 Yes Yes
2021JP3 O C K 2021-05-16.24279 1.000E-05 14:05:19.580 1.500E-01 0.500 F 0.274 0.017 -14° 05' 37.30" 1.000E-01 0.500 F 0.216 -0.354 21.7 R 0.70 1.03 o 691 0.71 Yes Yes
2021JH6 O C K 2021-05-16.39097 1.000E-05 15:35:10.040 1.500E-01 0.500 F 0.164 0.352 -07° 28' 11.80" 1.000E-01 0.500 F 0.177 -0.124 22.3 R 0.70 0.84 o 691 0.78 Yes Yes

[1-200] [201-400] [401-600] [601-800] [801-1000] [1001-1200] [1201-1400] [1401-1600] [1601-1800] [1801-2000] [2001-2200] [2201-2400] [2401-2600] [2601-2800] [2801-3000] [3001-3200] [3201-3400] [3401-3600] [3601-3800] [3801-4000] [4001-4200] [4201-4400] [4401-4600] [4601-4800] [4801-5000] [5001-5200] [5201-5400] [5401-5600] [5601-5800] [5801-6000] [6001-6200] [6201-6400] [6401-6600] [6601-6800] [6801-7000] [7001-7200] [7201-7400] [7401-7600] [7601-7800] [7801-8000] [8001-8200] [8201-8400] [8401-8600] [8601-8800] [8801-9000] [9001-9200] [9201-9400] [9401-9600] [9601-9800] [9801-10000] [10001-10200] [10201-10400] [10401-10600] [10601-10800] [10801-11000] [11001-11200] [11201-11400] [11401-11600] [11601-11800] [11801-12000] [12001-12200] [12201-12400] [12401-12600] [12601-12800] [12801-13000] [13001-13200] [13201-13400] [13401-13600] [13601-13800] [13801-14000] [14001-14200] [14201-14400] [14401-14600] [14601-14800] [14801-15000] [15001-15200] [15201-15400] [15401-15600] [15601-15800] [15801-16000] [16001-16200] [16201-16400] [16401-16600] [16601-16800] [16801-17000] [17001-17200] [17201-17400] [17401-17600] [17601-17800] [17801-18000] [18001-18200] [18201-18400] [18401-18600] [18601-18800] [18801-19000] [19001-19200] [19201-19400] [19401-19600] [19601-19800] [19801-20000] [20001-20200] [20201-20400] [20401-20600] [20601-20800] [20801-21000] [21001-21200] [21201-21400] [21401-21600] [21601-21800] [21801-22000] [22001-22200] [22201-22400] [22401-22600] [22601-22800] [22801-23000] [23001-23200] [23201-23400] [23401-23600] [23601-23800] [23801-24000] [24001-24200] [24201-24400] [24401-24600] [24601-24800] [24801-25000] [25001-25200] [25201-25400] [25401-25600] [25601-25800] [25801-26000] [26001-26200] [26201-26400] [26401-26600] [26601-26800] [26801-27000] [27001-27200] [27201-27400] [27401-27600] [27601-27800] [27801-28000] [28001-28200] [28201-28400] [28401-28600] [28601-28800] [28801-29000] [29001-29200] [29201-29400] [29401-29600] [29601-29800] [29801-30000] [30001-30200] [30201-30400] [30401-30600] [30601-30800] [30801-31000] [31001-31200] [31201-31400] [31401-31600] [31601-31800] [31801-32000] [32001-32200] [32201-32400] [32401-32600] [32601-32800] [32801-33000] [33001-33200] [33201-33400] [33401-33600] [33601-33800] [33801-34000] [34001-34200] [34201-34400] [34401-34600] [34601-34800] [34801-35000] [35001-35200] [35201-35400] [35401-35600] [35601-35800] [35801-36000] [36001-36200] [36201-36400] [36401-36600] [36601-36800] [36801-37000] [37001-37200] [37201-37400] [37401-37600] [37601-37800] [37801-38000] [38001-38200] [38201-38400] [38401-38600] [38601-38800] [38801-39000] [39001-39200] [39201-39400] [39401-39600] [39601-39800] [39801-40000] [40001-40200] [40201-40400] [40401-40600] [40601-40800] [40801-41000] [41001-41200] [41201-41400] [41401-41600] [41601-41800] [41801-42000] [42001-42200] [42201-42400] [42401-42600] [42601-42800] [42801-43000] [43001-43200] [43201-43400] [43401-43600] [43601-43800] [43801-44000] [44001-44200] [44201-44400] [44401-44600] [44601-44800] [44801-45000] [45001-45200] [45201-45400] [45401-45600] [45601-45800] [45801-46000] [46001-46200] [46201-46400] [46401-46600] [46601-46800] [46801-47000] [47001-47200] [47201-47400] [47401-47600] [47601-47800] [47801-48000] [48001-48200] [48201-48400] [48401-48600] [48601-48800] [48801-49000] [49001-49200] [49201-49400] [49401-49600] [49601-49800] [49801-50000] [50001-50200] [50201-50388]